createdAt,value
2023-08-15T00:02:58.571Z,21
2023-08-15T00:08:24.397Z,21
2023-08-15T00:14:11.848Z,21.2
2023-08-15T00:19:41.017Z,21.1
2023-08-15T00:25:21.809Z,21
2023-08-15T00:30:52.017Z,20.5
2023-08-15T00:36:11.467Z,21.1
2023-08-15T00:42:06.195Z,21.4
2023-08-15T00:47:24.984Z,20.9
2023-08-15T00:53:18.426Z,20.9
2023-08-15T01:04:05.348Z,20
2023-08-15T01:09:41.021Z,20.2
2023-08-15T01:15:26.285Z,20.5
2023-08-15T01:21:00.250Z,20.6
2023-08-15T01:26:48.417Z,20.6
2023-08-15T01:32:10.481Z,20.9
2023-08-15T01:37:40.948Z,21
2023-08-15T01:43:17.213Z,20.3
2023-08-15T01:54:14.183Z,20.1
2023-08-15T01:59:46.884Z,20.4
2023-08-15T02:05:42.937Z,20.4
2023-08-15T02:11:01.392Z,20.5
2023-08-15T02:16:33.435Z,20.4
2023-08-15T02:22:24.342Z,20.4
2023-08-15T02:28:01.506Z,20.4
2023-08-15T02:33:32.351Z,20.3
2023-08-15T02:39:07.295Z,20.3
2023-08-15T02:44:48.632Z,20.3
2023-08-15T02:50:22.603Z,20.4
2023-08-15T02:55:31.018Z,20.5
2023-08-15T03:01:18.071Z,20.4
2023-08-15T03:07:06.174Z,20.2
2023-08-15T03:12:42.000Z,20.4
2023-08-15T03:17:47.749Z,20.2
2023-08-15T03:29:07.711Z,19.8
2023-08-15T03:34:53.805Z,20.1
2023-08-15T03:40:08.072Z,20.3
2023-08-15T03:45:43.753Z,20.1
2023-08-15T03:51:23.110Z,19.9
2023-08-15T03:57:10.225Z,19.9
2023-08-15T04:02:27.812Z,19.9
2023-08-15T04:08:08.688Z,20
2023-08-15T04:19:14.126Z,20.2
2023-08-15T04:24:39.017Z,20.1
2023-08-15T04:30:31.307Z,20.1
2023-08-15T04:35:49.066Z,20.1
2023-08-15T04:41:38.485Z,20.2
2023-08-15T04:47:03.741Z,20.1
2023-08-15T04:52:59.209Z,19.6
2023-08-15T04:58:21.234Z,19.5
2023-08-15T05:03:57.171Z,19.9
2023-08-15T05:09:37.946Z,20.2
2023-08-15T05:14:55.090Z,20.4
2023-08-15T05:20:26.985Z,20.5
2023-08-15T05:26:00.412Z,20.7
2023-08-15T05:31:59.224Z,20.5
2023-08-15T05:37:13.412Z,20.6
2023-08-15T05:42:43.066Z,20.7
2023-08-15T05:48:16.963Z,20.8
2023-08-15T05:59:25.358Z,20.9
2023-08-15T06:05:21.633Z,21
2023-08-15T06:10:43.290Z,21.2
2023-08-15T06:16:26.024Z,21.6
2023-08-15T06:22:03.294Z,21.7
2023-08-15T06:27:44.488Z,21.9
2023-08-15T06:33:15.491Z,22.1
2023-08-15T06:44:04.687Z,21.9
2023-08-15T06:49:56.787Z,21.9
2023-08-15T06:55:38.817Z,22.4
2023-08-15T07:00:54.502Z,22.5
2023-08-15T07:06:35.209Z,23.1
2023-08-15T07:12:22.663Z,23.5
2023-08-15T07:17:59.251Z,24.2
2023-08-15T07:23:13.839Z,24.3
2023-08-15T07:34:52.210Z,24.5
2023-08-15T07:40:19.696Z,24.1
2023-08-15T07:45:40.537Z,24.1
2023-08-15T07:51:37.804Z,24.4
2023-08-15T07:57:07.860Z,24.7
2023-08-15T08:02:38.825Z,25.1
2023-08-15T08:19:45.657Z,26.3
2023-08-15T08:25:04.331Z,26.8
2023-08-15T08:30:49.901Z,26
2023-08-15T08:36:37.054Z,26.7
2023-08-15T08:42:03.797Z,26.7
2023-08-15T08:47:54.222Z,27.2
2023-08-15T08:53:21.303Z,27.2
2023-08-15T08:58:52.295Z,26.9
2023-08-15T09:04:31.765Z,27.8
2023-08-15T09:10:21.447Z,28.3
2023-08-15T09:15:56.088Z,27.8
2023-08-15T09:21:36.040Z,28
2023-08-15T09:27:07.089Z,27.6
2023-08-15T09:32:59.743Z,28.6
2023-08-15T09:38:21.178Z,28.2
2023-08-15T09:49:36.206Z,27.9
2023-08-15T09:55:10.237Z,27.9
2023-08-15T10:01:09.476Z,28.8
2023-08-15T10:06:33.725Z,29
2023-08-15T10:12:25.871Z,28.4
2023-08-15T10:17:53.847Z,27.8
2023-08-15T10:23:17.919Z,27.6
2023-08-15T10:28:59.849Z,28.2
2023-08-15T10:34:48.842Z,28.8
2023-08-15T10:40:20.675Z,29.5
2023-08-15T10:46:00.024Z,28.5
2023-08-15T10:51:33.184Z,29.2
2023-08-15T10:57:29.491Z,28.4
2023-08-15T11:03:01.214Z,29.3
2023-08-15T11:19:48.773Z,29.9
2023-08-15T11:25:45.387Z,29.2
2023-08-15T11:31:16.535Z,29.6
2023-08-15T11:36:37.733Z,29.9
2023-08-15T11:42:42.331Z,29.9
2023-08-15T11:48:19.992Z,30.6
2023-08-15T11:53:55.149Z,29.4
2023-08-15T11:59:31.078Z,29.3
2023-08-15T12:04:57.339Z,29.7
2023-08-15T12:10:48.019Z,30.2
2023-08-15T12:16:35.534Z,30.1
2023-08-15T12:22:13.098Z,29.6
2023-08-15T12:27:46.257Z,29.9
2023-08-15T12:33:27.299Z,31.1
2023-08-15T12:39:02.809Z,31.9
2023-08-15T12:44:40.441Z,31.8
2023-08-15T12:50:18.641Z,30.9
2023-08-15T12:56:12.701Z,30.7
2023-08-15T13:01:34.557Z,31
2023-08-15T13:07:06.126Z,31.8
2023-08-15T13:12:54.768Z,31.6
2023-08-15T13:18:32.158Z,31.1
2023-08-15T13:24:09.740Z,30.9
2023-08-15T13:29:51.471Z,31.2
2023-08-15T13:35:25.607Z,31
2023-08-15T13:41:08.460Z,31.5
2023-08-15T13:46:44.316Z,31.4
2023-08-15T13:52:24.451Z,31.8
2023-08-15T13:58:07.854Z,32.3
2023-08-15T14:09:50.052Z,32
2023-08-15T14:15:27.373Z,32.1
2023-08-15T14:20:43.950Z,31.4
2023-08-15T14:26:47.244Z,31.3
2023-08-15T14:32:03.416Z,31.2
2023-08-15T14:37:43.203Z,31.8
2023-08-15T14:43:34.608Z,32
2023-08-15T14:49:10.302Z,31.9
2023-08-15T14:54:50.609Z,32.6
2023-08-15T15:00:27.147Z,32.6
2023-08-15T15:06:19.196Z,32.5
2023-08-15T15:12:10.162Z,31.8
2023-08-15T15:17:36.519Z,32.1
2023-08-15T15:23:10.315Z,30.8
2023-08-15T15:28:52.426Z,30.9
2023-08-15T15:34:43.740Z,30.7
2023-08-15T15:40:05.412Z,30.2
2023-08-15T15:45:58.219Z,30.8
2023-08-15T15:51:15.912Z,30.3
2023-08-15T15:57:14.499Z,30.4
2023-08-15T16:02:31.031Z,30.2
2023-08-15T16:08:23.906Z,30.4
2023-08-15T16:19:27.987Z,29.3
2023-08-15T16:25:24.047Z,29.5
2023-08-15T16:31:00.961Z,29.5
2023-08-15T16:36:35.824Z,29.5
2023-08-15T16:41:54.879Z,29.3
2023-08-15T16:47:36.439Z,29.4
2023-08-15T16:53:27.020Z,29
2023-08-15T16:59:00.568Z,29
2023-08-15T17:04:47.388Z,28.9
2023-08-15T17:10:32.619Z,28.7
2023-08-15T17:15:57.772Z,28.6
2023-08-15T17:21:57.167Z,28.6
2023-08-15T17:27:27.616Z,28.8
2023-08-15T17:32:51.708Z,28.1
2023-08-15T17:49:50.687Z,27.7
2023-08-15T17:55:43.055Z,27.6
2023-08-15T18:01:14.233Z,27.4
2023-08-15T18:06:42.215Z,27.3
2023-08-15T18:12:34.899Z,27.1
2023-08-15T18:18:10.236Z,26.5
2023-08-15T18:34:36.665Z,25.9
2023-08-15T18:40:33.692Z,26
2023-08-15T18:46:07.959Z,26.2
2023-08-15T18:51:21.847Z,26.3
2023-08-15T18:57:12.701Z,26
2023-08-15T19:02:41.908Z,25.8
2023-08-15T19:08:12.901Z,25.8
2023-08-15T19:13:45.840Z,26.3
2023-08-15T19:19:39.946Z,25.9
2023-08-15T19:25:05.515Z,25.7
2023-08-15T19:30:53.569Z,25.4
2023-08-15T19:36:13.182Z,25.3
2023-08-15T19:42:05.589Z,24.6
2023-08-15T19:47:20.891Z,24.7
2023-08-15T19:53:12.428Z,24.9
2023-08-15T19:58:44.965Z,24.9
2023-08-15T20:09:55.758Z,24.6
2023-08-15T20:15:27.640Z,24.2
2023-08-15T20:21:00.268Z,24.1
2023-08-15T20:26:36.922Z,24.1
2023-08-15T20:32:02.295Z,23.8
2023-08-15T20:37:49.318Z,23.7
2023-08-15T20:43:13.037Z,23.9
2023-08-15T20:49:01.021Z,24.1
2023-08-15T21:00:07.321Z,23
2023-08-15T21:05:36.016Z,22.8
2023-08-15T21:11:35.062Z,22.9
2023-08-15T21:16:48.608Z,23
2023-08-15T21:22:36.532Z,23.1
2023-08-15T21:28:00.420Z,23.3
2023-08-15T21:33:43.768Z,23.3
2023-08-15T21:44:52.498Z,23
2023-08-15T21:50:13.830Z,22.7
2023-08-15T21:56:11.038Z,22.7
2023-08-15T22:01:45.189Z,22.5
2023-08-15T22:06:57.780Z,22.5
2023-08-15T22:12:49.426Z,22.5
2023-08-15T22:18:19.278Z,22.5
2023-08-15T22:23:44.191Z,22.6
2023-08-15T22:29:32.376Z,21.9
2023-08-15T22:35:04.343Z,21.9
2023-08-15T22:40:27.617Z,22
2023-08-15T22:46:28.767Z,21.9
2023-08-15T22:51:50.599Z,21.5
2023-08-15T22:57:12.360Z,21.9
2023-08-15T23:03:28.357Z,22
2023-08-15T23:14:00.921Z,21.8
2023-08-15T23:19:38.314Z,21.7
2023-08-15T23:25:29.651Z,21.6
2023-08-15T23:31:05.456Z,21.8
2023-08-15T23:36:27.331Z,21.8
2023-08-15T23:41:59.692Z,21.1
2023-08-15T23:47:31.765Z,20.9
2023-08-15T23:53:13.762Z,20.4
